sensor_id;sensor_type;location;lat;lon;timestamp;pressure;altitude;pressure_sealevel;temperature;humidity
37878;BME280;23715;53.652;8.516;2023-04-08T00:04:30;102544.76;;;8.59;100.00
37878;BME280;23715;53.652;8.516;2023-04-08T00:09:30;102546.09;;;8.59;100.00
37878;BME280;23715;53.652;8.516;2023-04-08T00:14:36;102548.41;;;8.58;100.00
37878;BME280;23715;53.652;8.516;2023-04-08T00:19:32;102555.89;;;8.60;100.00
37878;BME280;23715;53.652;8.516;2023-04-08T00:24:34;102557.80;;;8.39;100.00
37878;BME280;23715;53.652;8.516;2023-04-08T00:29:37;102567.46;;;8.43;100.00
37878;BME280;23715;53.652;8.516;2023-04-08T00:34:37;102569.11;;;8.46;100.00
37878;BME280;23715;53.652;8.516;2023-04-08T00:39:39;102573.72;;;8.33;100.00
37878;BME280;23715;53.652;8.516;2023-04-08T00:44:46;102567.32;;;8.46;100.00
37878;BME280;23715;53.652;8.516;2023-04-08T00:49:48;102571.79;;;8.46;100.00
37878;BME280;23715;53.652;8.516;2023-04-08T00:54:57;102570.69;;;8.50;100.00
37878;BME280;23715;53.652;8.516;2023-04-08T01:00:00;102577.49;;;8.29;100.00
37878;BME280;23715;53.652;8.516;2023-04-08T01:05:06;102577.16;;;8.46;100.00
37878;BME280;23715;53.652;8.516;2023-04-08T01:10:14;102579.32;;;8.37;100.00
37878;BME280;23715;53.652;8.516;2023-04-08T01:15:13;102579.32;;;8.37;100.00
37878;BME280;23715;53.652;8.516;2023-04-08T01:20:15;102575.13;;;8.51;100.00
37878;BME280;23715;53.652;8.516;2023-04-08T01:25:35;102583.48;;;8.45;100.00
37878;BME280;23715;53.652;8.516;2023-04-08T01:30:39;102584.68;;;8.37;100.00
37878;BME280;23715;53.652;8.516;2023-04-08T01:35:40;102581.97;;;8.48;100.00
37878;BME280;23715;53.652;8.516;2023-04-08T01:40:41;102588.98;;;8.42;100.00
37878;BME280;23715;53.652;8.516;2023-04-08T01:45:45;102580.96;;;8.59;100.00
37878;BME280;23715;53.652;8.516;2023-04-08T01:51:01;102592.24;;;8.48;100.00
37878;BME280;23715;53.652;8.516;2023-04-08T01:55:51;102590.05;;;8.37;100.00
37878;BME280;23715;53.652;8.516;2023-04-08T02:00:54;102599.11;;;8.35;100.00
37878;BME280;23715;53.652;8.516;2023-04-08T02:05:55;102600.70;;;8.58;100.00
37878;BME280;23715;53.652;8.516;2023-04-08T02:10:56;102605.72;;;8.47;100.00
37878;BME280;23715;53.652;8.516;2023-04-08T02:16:05;102599.19;;;8.33;100.00
37878;BME280;23715;53.652;8.516;2023-04-08T02:21:10;102595.71;;;8.50;100.00
37878;BME280;23715;53.652;8.516;2023-04-08T02:26:14;102606.64;;;8.46;100.00
37878;BME280;23715;53.652;8.516;2023-04-08T02:31:17;102606.54;;;8.38;100.00
37878;BME280;23715;53.652;8.516;2023-04-08T02:36:18;102613.63;;;8.58;100.00
37878;BME280;23715;53.652;8.516;2023-04-08T02:41:19;102615.38;;;8.59;100.00
37878;BME280;23715;53.652;8.516;2023-04-08T02:46:19;102612.35;;;8.57;100.00
37878;BME280;23715;53.652;8.516;2023-04-08T02:51:20;102618.02;;;8.51;100.00
37878;BME280;23715;53.652;8.516;2023-04-08T02:56:20;102615.58;;;8.55;100.00
37878;BME280;23715;53.652;8.516;2023-04-08T03:01:20;102614.48;;;8.50;100.00
37878;BME280;23715;53.652;8.516;2023-04-08T03:06:22;102622.73;;;8.46;100.00
37878;BME280;23715;53.652;8.516;2023-04-08T03:11:32;102616.92;;;8.55;100.00
37878;BME280;23715;53.652;8.516;2023-04-08T03:16:30;102618.92;;;8.60;100.00
37878;BME280;23715;53.652;8.516;2023-04-08T03:21:29;102614.44;;;8.69;100.00
37878;BME280;23715;53.652;8.516;2023-04-08T03:26:30;102616.16;;;8.62;100.00
37878;BME280;23715;53.652;8.516;2023-04-08T03:31:33;102616.95;;;8.72;100.00
37878;BME280;23715;53.652;8.516;2023-04-08T03:36:39;102618.40;;;8.71;100.00
37878;BME280;23715;53.652;8.516;2023-04-08T03:41:39;102611.92;;;8.84;100.00
37878;BME280;23715;53.652;8.516;2023-04-08T03:46:41;102603.80;;;8.85;100.00
37878;BME280;23715;53.652;8.516;2023-04-08T03:51:40;102608.05;;;8.72;100.00
37878;BME280;23715;53.652;8.516;2023-04-08T03:56:41;102597.64;;;8.83;100.00
37878;BME280;23715;53.652;8.516;2023-04-08T04:01:41;102598.89;;;8.76;100.00
37878;BME280;23715;53.652;8.516;2023-04-08T04:06:44;102601.24;;;8.65;100.00
37878;BME280;23715;53.652;8.516;2023-04-08T04:11:54;102611.92;;;8.75;100.00
37878;BME280;23715;53.652;8.516;2023-04-08T04:17:02;102608.63;;;8.78;100.00
37878;BME280;23715;53.652;8.516;2023-04-08T04:21:59;102606.88;;;8.77;100.00
37878;BME280;23715;53.652;8.516;2023-04-08T04:27:05;102609.64;;;8.85;100.00
37878;BME280;23715;53.652;8.516;2023-04-08T04:32:08;102614.55;;;8.94;100.00
37878;BME280;23715;53.652;8.516;2023-04-08T04:37:08;102614.37;;;8.79;100.00
37878;BME280;23715;53.652;8.516;2023-04-08T04:42:10;102623.21;;;8.73;100.00
37878;BME280;23715;53.652;8.516;2023-04-08T04:47:11;102615.48;;;8.93;100.00
37878;BME280;23715;53.652;8.516;2023-04-08T04:52:11;102612.80;;;8.93;100.00
37878;BME280;23715;53.652;8.516;2023-04-08T04:57:13;102619.73;;;8.79;100.00
37878;BME280;23715;53.652;8.516;2023-04-08T05:02:20;102630.16;;;8.77;100.00
37878;BME280;23715;53.652;8.516;2023-04-08T05:07:24;102636.73;;;8.61;100.00
37878;BME280;23715;53.652;8.516;2023-04-08T05:12:26;102643.25;;;8.83;100.00
37878;BME280;23715;53.652;8.516;2023-04-08T05:17:26;102637.58;;;8.81;100.00
37878;BME280;23715;53.652;8.516;2023-04-08T05:22:28;102644.42;;;8.77;100.00
37878;BME280;23715;53.652;8.516;2023-04-08T05:27:28;102652.50;;;8.95;100.00
37878;BME280;23715;53.652;8.516;2023-04-08T05:32:29;102654.31;;;8.94;100.00
37878;BME280;23715;53.652;8.516;2023-04-08T05:37:29;102657.72;;;8.98;100.00
37878;BME280;23715;53.652;8.516;2023-04-08T05:42:29;102669.95;;;9.12;100.00
37878;BME280;23715;53.652;8.516;2023-04-08T05:47:32;102669.08;;;8.94;100.00
37878;BME280;23715;53.652;8.516;2023-04-08T05:52:36;102670.03;;;9.02;100.00
37878;BME280;23715;53.652;8.516;2023-04-08T05:57:39;102669.08;;;8.94;100.00
37878;BME280;23715;53.652;8.516;2023-04-08T06:02:40;102671.38;;;9.02;100.00
37878;BME280;23715;53.652;8.516;2023-04-08T06:07:41;102676.64;;;8.95;100.00
37878;BME280;23715;53.652;8.516;2023-04-08T06:12:43;102680.57;;;8.88;100.00
37878;BME280;23715;53.652;8.516;2023-04-08T06:17:53;102681.88;;;8.98;100.00
37878;BME280;23715;53.652;8.516;2023-04-08T06:22:51;102682.02;;;8.95;100.00
37878;BME280;23715;53.652;8.516;2023-04-08T06:27:54;102682.67;;;9.17;100.00
37878;BME280;23715;53.652;8.516;2023-04-08T06:32:55;102685.53;;;9.14;100.00
37878;BME280;23715;53.652;8.516;2023-04-08T06:37:57;102698.32;;;8.82;100.00
37878;BME280;23715;53.652;8.516;2023-04-08T06:43:00;102699.80;;;8.97;100.00
37878;BME280;23715;53.652;8.516;2023-04-08T06:48:04;102714.23;;;9.12;100.00
37878;BME280;23715;53.652;8.516;2023-04-08T06:53:05;102714.23;;;9.12;100.00
37878;BME280;23715;53.652;8.516;2023-04-08T06:58:13;102717.57;;;9.17;100.00
37878;BME280;23715;53.652;8.516;2023-04-08T07:03:12;102718.27;;;9.12;100.00
37878;BME280;23715;53.652;8.516;2023-04-08T07:08:12;102719.88;;;9.25;100.00
37878;BME280;23715;53.652;8.516;2023-04-08T07:13:17;102729.98;;;9.46;100.00
37878;BME280;23715;53.652;8.516;2023-04-08T07:18:14;102724.06;;;9.48;100.00
37878;BME280;23715;53.652;8.516;2023-04-08T07:23:19;102712.92;;;9.38;100.00
37878;BME280;23715;53.652;8.516;2023-04-08T07:28:30;102712.92;;;9.38;100.00
37878;BME280;23715;53.652;8.516;2023-04-08T07:33:33;102724.55;;;9.48;100.00
37878;BME280;23715;53.652;8.516;2023-04-08T07:38:33;102731.66;;;9.57;100.00
37878;BME280;23715;53.652;8.516;2023-04-08T07:43:35;102732.05;;;9.76;100.00
37878;BME280;23715;53.652;8.516;2023-04-08T07:48:36;102731.41;;;9.71;100.00
37878;BME280;23715;53.652;8.516;2023-04-08T07:53:37;102737.34;;;9.69;100.00
37878;BME280;23715;53.652;8.516;2023-04-08T07:58:39;102734.17;;;9.78;100.00
37878;BME280;23715;53.652;8.516;2023-04-08T08:03:40;102739.95;;;9.79;100.00
37878;BME280;23715;53.652;8.516;2023-04-08T08:08:41;102733.14;;;9.89;100.00
37878;BME280;23715;53.652;8.516;2023-04-08T08:13:45;102736.78;;;9.71;100.00
37878;BME280;23715;53.652;8.516;2023-04-08T08:18:49;102740.81;;;9.71;100.00
37878;BME280;23715;53.652;8.516;2023-04-08T08:24:07;102738.06;;;9.81;100.00
37878;BME280;23715;53.652;8.516;2023-04-08T08:29:29;102745.40;;;9.69;100.00
37878;BME280;23715;53.652;8.516;2023-04-08T08:40:18;102753.92;;;9.94;100.00
37878;BME280;23715;53.652;8.516;2023-04-08T08:45:31;102757.25;;;9.82;100.00
37878;BME280;23715;53.652;8.516;2023-04-08T08:50:51;102763.68;;;10.13;100.00
37878;BME280;23715;53.652;8.516;2023-04-08T08:55:59;102771.77;;;10.30;100.00
37878;BME280;23715;53.652;8.516;2023-04-08T09:01:39;102767.12;;;10.41;100.00
37878;BME280;23715;53.652;8.516;2023-04-08T09:06:46;102764.42;;;10.50;100.00
37878;BME280;23715;53.652;8.516;2023-04-08T09:11:54;102759.06;;;10.41;100.00
37878;BME280;23715;53.652;8.516;2023-04-08T09:16:56;102765.75;;;10.74;100.00
37878;BME280;23715;53.652;8.516;2023-04-08T09:22:10;102761.20;;;10.84;100.00
37878;BME280;23715;53.652;8.516;2023-04-08T09:27:12;102770.67;;;10.91;100.00
37878;BME280;23715;53.652;8.516;2023-04-08T09:32:14;102776.24;;;10.79;100.00
37878;BME280;23715;53.652;8.516;2023-04-08T09:37:15;102782.75;;;10.59;100.00
37878;BME280;23715;53.652;8.516;2023-04-08T09:42:33;102777.72;;;10.53;100.00
37878;BME280;23715;53.652;8.516;2023-04-08T09:47:22;102788.75;;;10.96;100.00
37878;BME280;23715;53.652;8.516;2023-04-08T09:52:38;102786.77;;;11.16;100.00
37878;BME280;23715;53.652;8.516;2023-04-08T09:57:57;102778.54;;;11.26;100.00
37878;BME280;23715;53.652;8.516;2023-04-08T10:08:20;102777.64;;;11.18;100.00
37878;BME280;23715;53.652;8.516;2023-04-08T10:13:22;102780.04;;;10.84;100.00
37878;BME280;23715;53.652;8.516;2023-04-08T10:18:29;102788.52;;;11.01;100.00
37878;BME280;23715;53.652;8.516;2023-04-08T10:23:52;102791.55;;;11.10;100.00
37878;BME280;23715;53.652;8.516;2023-04-08T10:33:59;102799.52;;;10.96;100.00
37878;BME280;23715;53.652;8.516;2023-04-08T10:44:29;102793.39;;;11.17;100.00
37878;BME280;23715;53.652;8.516;2023-04-08T10:49:29;102791.08;;;10.95;100.00
37878;BME280;23715;53.652;8.516;2023-04-08T10:54:42;102787.62;;;10.68;100.00
37878;BME280;23715;53.652;8.516;2023-04-08T10:59:35;102785.99;;;11.13;100.00
37878;BME280;23715;53.652;8.516;2023-04-08T11:04:40;102787.39;;;11.28;100.00
37878;BME280;23715;53.652;8.516;2023-04-08T11:09:51;102785.23;;;11.35;100.00
37878;BME280;23715;53.652;8.516;2023-04-08T11:19:58;102788.55;;;11.77;100.00
37878;BME280;23715;53.652;8.516;2023-04-08T11:25:04;102793.93;;;11.77;100.00
37878;BME280;23715;53.652;8.516;2023-04-08T11:30:13;102785.45;;;11.99;100.00
37878;BME280;23715;53.652;8.516;2023-04-08T11:35:10;102782.32;;;11.61;100.00
37878;BME280;23715;53.652;8.516;2023-04-08T11:40:18;102776.23;;;11.80;100.00
37878;BME280;23715;53.652;8.516;2023-04-08T11:45:17;102776.91;;;12.14;100.00
37878;BME280;23715;53.652;8.516;2023-04-08T11:50:28;102762.44;;;12.44;100.00
37878;BME280;23715;53.652;8.516;2023-04-08T11:55:33;102764.74;;;12.64;100.00
37878;BME280;23715;53.652;8.516;2023-04-08T12:00:37;102748.66;;;12.97;100.00
37878;BME280;23715;53.652;8.516;2023-04-08T12:05:43;102747.30;;;12.97;100.00
37878;BME280;23715;53.652;8.516;2023-04-08T12:10:43;102747.69;;;13.25;100.00
37878;BME280;23715;53.652;8.516;2023-04-08T12:15:44;102745.89;;;13.46;100.00
37878;BME280;23715;53.652;8.516;2023-04-08T12:20:46;102741.78;;;13.60;100.00
37878;BME280;23715;53.652;8.516;2023-04-08T12:25:51;102744.72;;;13.23;100.00
37878;BME280;23715;53.652;8.516;2023-04-08T12:30:56;102737.27;;;13.54;100.00
37878;BME280;23715;53.652;8.516;2023-04-08T12:35:58;102730.33;;;13.82;100.00
37878;BME280;23715;53.652;8.516;2023-04-08T12:41:01;102733.27;;;13.79;100.00
37878;BME280;23715;53.652;8.516;2023-04-08T12:46:11;102723.78;;;14.05;100.00
37878;BME280;23715;53.652;8.516;2023-04-08T12:51:14;102726.59;;;14.29;100.00
37878;BME280;23715;53.652;8.516;2023-04-08T12:56:16;102721.77;;;14.40;100.00
37878;BME280;23715;53.652;8.516;2023-04-08T13:01:18;102726.95;;;14.30;100.00
37878;BME280;23715;53.652;8.516;2023-04-08T13:06:27;102728.54;;;14.27;100.00
37878;BME280;23715;53.652;8.516;2023-04-08T13:11:27;102731.69;;;14.52;100.00
37878;BME280;23715;53.652;8.516;2023-04-08T13:16:29;102720.22;;;14.80;100.00
37878;BME280;23715;53.652;8.516;2023-04-08T13:21:31;102717.55;;;14.86;100.00
37878;BME280;23715;53.652;8.516;2023-04-08T13:26:33;102720.76;;;14.67;100.00
37878;BME280;23715;53.652;8.516;2023-04-08T13:31:44;102718.05;;;14.67;100.00
37878;BME280;23715;53.652;8.516;2023-04-08T13:36:40;102710.50;;;14.83;100.00
37878;BME280;23715;53.652;8.516;2023-04-08T13:41:40;102714.02;;;14.96;100.00
37878;BME280;23715;53.652;8.516;2023-04-08T13:46:40;102708.10;;;14.91;100.00
37878;BME280;23715;53.652;8.516;2023-04-08T13:51:41;102704.53;;;14.96;100.00
37878;BME280;23715;53.652;8.516;2023-04-08T13:56:46;102713.55;;;14.60;100.00
37878;BME280;23715;53.652;8.516;2023-04-08T14:01:45;102709.28;;;14.63;100.00
37878;BME280;23715;53.652;8.516;2023-04-08T14:07:05;102717.41;;;14.63;100.00
37878;BME280;23715;53.652;8.516;2023-04-08T14:12:01;102704.92;;;14.97;100.00
37878;BME280;23715;53.652;8.516;2023-04-08T14:22:12;102707.11;;;14.74;100.00
37878;BME280;23715;53.652;8.516;2023-04-08T14:27:14;102715.77;;;14.60;100.00
37878;BME280;23715;53.652;8.516;2023-04-08T14:32:14;102713.64;;;14.40;100.00
37878;BME280;23715;53.652;8.516;2023-04-08T14:37:15;102712.19;;;14.47;100.00
37878;BME280;23715;53.652;8.516;2023-04-08T14:42:16;102709.81;;;14.55;100.00
37878;BME280;23715;53.652;8.516;2023-04-08T14:47:20;102714.95;;;14.34;100.00
37878;BME280;23715;53.652;8.516;2023-04-08T14:52:18;102721.52;;;14.43;100.00
37878;BME280;23715;53.652;8.516;2023-04-08T15:02:32;102727.34;;;14.62;100.00
37878;BME280;23715;53.652;8.516;2023-04-08T15:07:35;102725.32;;;14.72;100.00
37878;BME280;23715;53.652;8.516;2023-04-08T15:12:37;102724.47;;;14.40;100.00
37878;BME280;23715;53.652;8.516;2023-04-08T15:17:40;102730.50;;;14.25;100.00
37878;BME280;23715;53.652;8.516;2023-04-08T15:22:47;102728.09;;;14.33;100.00
37878;BME280;23715;53.652;8.516;2023-04-08T15:27:56;102728.85;;;14.22;100.00
37878;BME280;23715;53.652;8.516;2023-04-08T15:32:58;102733.80;;;14.10;100.00
37878;BME280;23715;53.652;8.516;2023-04-08T15:38:00;102736.66;;;14.14;100.00
37878;BME280;23715;53.652;8.516;2023-04-08T15:43:00;102734.35;;;14.15;100.00
37878;BME280;23715;53.652;8.516;2023-04-08T15:48:03;102736.77;;;14.00;100.00
37878;BME280;23715;53.652;8.516;2023-04-08T15:53:05;102742.61;;;13.94;100.00
37878;BME280;23715;53.652;8.516;2023-04-08T15:58:14;102737.26;;;13.74;100.00
37878;BME280;23715;53.652;8.516;2023-04-08T16:03:26;102741.38;;;13.79;100.00
37878;BME280;23715;53.652;8.516;2023-04-08T16:08:28;102743.06;;;13.55;100.00
37878;BME280;23715;53.652;8.516;2023-04-08T16:13:30;102741.48;;;13.58;100.00
37878;BME280;23715;53.652;8.516;2023-04-08T16:18:30;102742.13;;;13.81;100.00
37878;BME280;23715;53.652;8.516;2023-04-08T16:23:30;102742.13;;;13.81;100.00
37878;BME280;23715;53.652;8.516;2023-04-08T16:28:32;102748.37;;;13.69;100.00
37878;BME280;23715;53.652;8.516;2023-04-08T16:33:38;102747.12;;;13.55;100.00
37878;BME280;23715;53.652;8.516;2023-04-08T16:38:40;102756.61;;;13.47;100.00
37878;BME280;23715;53.652;8.516;2023-04-08T16:43:45;102751.17;;;13.55;100.00
37878;BME280;23715;53.652;8.516;2023-04-08T16:48:47;102750.87;;;13.39;100.00
37878;BME280;23715;53.652;8.516;2023-04-08T16:53:52;102750.56;;;13.29;100.00
37878;BME280;23715;53.652;8.516;2023-04-08T16:58:52;102753.09;;;13.05;100.00
37878;BME280;23715;53.652;8.516;2023-04-08T17:03:52;102753.47;;;12.99;100.00
37878;BME280;23715;53.652;8.516;2023-04-08T17:09:01;102760.64;;;12.86;100.00
37878;BME280;23715;53.652;8.516;2023-04-08T17:14:01;102768.88;;;12.63;100.00
37878;BME280;23715;53.652;8.516;2023-04-08T17:19:01;102772.38;;;12.58;100.00
37878;BME280;23715;53.652;8.516;2023-04-08T17:24:03;102779.00;;;12.66;100.00
37878;BME280;23715;53.652;8.516;2023-04-08T17:29:09;102790.68;;;12.38;100.00
37878;BME280;23715;53.652;8.516;2023-04-08T17:34:10;102791.08;;;12.39;100.00
37878;BME280;23715;53.652;8.516;2023-04-08T17:39:12;102795.56;;;12.10;100.00
37878;BME280;23715;53.652;8.516;2023-04-08T17:44:13;102804.63;;;12.09;100.00
37878;BME280;23715;53.652;8.516;2023-04-08T17:49:17;102812.25;;;11.86;100.00
37878;BME280;23715;53.652;8.516;2023-04-08T17:54:19;102819.64;;;11.52;100.00
37878;BME280;23715;53.652;8.516;2023-04-08T17:59:23;102828.70;;;11.51;100.00
37878;BME280;23715;53.652;8.516;2023-04-08T18:04:25;102828.89;;;11.32;100.00
37878;BME280;23715;53.652;8.516;2023-04-08T18:09:31;102844.36;;;11.29;100.00
37878;BME280;23715;53.652;8.516;2023-04-08T18:14:35;102852.12;;;11.26;100.00
37878;BME280;23715;53.652;8.516;2023-04-08T18:19:41;102854.17;;;11.14;100.00
37878;BME280;23715;53.652;8.516;2023-04-08T18:24:44;102862.27;;;10.89;100.00
37878;BME280;23715;53.652;8.516;2023-04-08T18:29:50;102871.78;;;10.79;100.00
37878;BME280;23715;53.652;8.516;2023-04-08T18:34:49;102882.54;;;10.88;100.00
37878;BME280;23715;53.652;8.516;2023-04-08T18:39:50;102879.77;;;10.89;100.00
37878;BME280;23715;53.652;8.516;2023-04-08T18:44:52;102878.98;;;10.87;100.00
37878;BME280;23715;53.652;8.516;2023-04-08T18:49:56;102889.20;;;10.81;100.00
37878;BME280;23715;53.652;8.516;2023-04-08T18:54:59;102881.69;;;10.79;100.00
37878;BME280;23715;53.652;8.516;2023-04-08T19:00:03;102882.52;;;10.72;100.00
37878;BME280;23715;53.652;8.516;2023-04-08T19:05:04;102888.80;;;10.55;100.00
37878;BME280;23715;53.652;8.516;2023-04-08T19:10:08;102890.70;;;10.35;100.00
37878;BME280;23715;53.652;8.516;2023-04-08T19:15:16;102900.89;;;10.29;100.00
37878;BME280;23715;53.652;8.516;2023-04-08T19:20:13;102901.20;;;10.14;100.00
37878;BME280;23715;53.652;8.516;2023-04-08T19:25:16;102902.41;;;10.17;100.00
37878;BME280;23715;53.652;8.516;2023-04-08T19:30:22;102898.98;;;10.22;100.00
37878;BME280;23715;53.652;8.516;2023-04-08T19:35:21;102898.89;;;9.97;100.00
37878;BME280;23715;53.652;8.516;2023-04-08T19:40:22;102897.70;;;9.77;100.00
37878;BME280;23715;53.652;8.516;2023-04-08T19:50:24;102916.51;;;9.49;100.00
37878;BME280;23715;53.652;8.516;2023-04-08T20:00:31;102930.26;;;9.33;100.00
37878;BME280;23715;53.652;8.516;2023-04-08T20:05:31;102929.64;;;9.36;100.00
37878;BME280;23715;53.652;8.516;2023-04-08T20:10:38;102929.64;;;9.36;100.00
37878;BME280;23715;53.652;8.516;2023-04-08T20:15:35;102929.76;;;9.44;100.00
37878;BME280;23715;53.652;8.516;2023-04-08T20:20:40;102929.95;;;9.30;100.00
37878;BME280;23715;53.652;8.516;2023-04-08T20:25:43;102928.72;;;9.08;100.00
37878;BME280;23715;53.652;8.516;2023-04-08T20:30:43;102936.77;;;8.69;100.00
37878;BME280;23715;53.652;8.516;2023-04-08T20:35:45;102943.95;;;8.68;100.00
37878;BME280;23715;53.652;8.516;2023-04-08T20:40:48;102954.48;;;8.83;100.00
37878;BME280;23715;53.652;8.516;2023-04-08T20:45:50;102954.09;;;8.82;100.00
37878;BME280;23715;53.652;8.516;2023-04-08T20:51:00;102953.28;;;8.70;100.00
37878;BME280;23715;53.652;8.516;2023-04-08T20:55:56;102954.82;;;8.75;100.00
37878;BME280;23715;53.652;8.516;2023-04-08T21:00:59;102946.38;;;8.64;100.00
37878;BME280;23715;53.652;8.516;2023-04-08T21:06:09;102952.02;;;8.58;100.00
37878;BME280;23715;53.652;8.516;2023-04-08T21:11:07;102951.25;;;8.44;100.00
37878;BME280;23715;53.652;8.516;2023-04-08T21:16:10;102957.66;;;8.52;100.00
37878;BME280;23715;53.652;8.516;2023-04-08T21:21:11;102951.97;;;8.37;100.00
37878;BME280;23715;53.652;8.516;2023-04-08T21:26:12;102956.27;;;8.31;100.00
37878;BME280;23715;53.652;8.516;2023-04-08T21:31:12;102955.75;;;8.44;100.00
37878;BME280;23715;53.652;8.516;2023-04-08T21:36:13;102959.75;;;8.33;100.00
37878;BME280;23715;53.652;8.516;2023-04-08T21:41:16;102966.18;;;8.39;100.00
37878;BME280;23715;53.652;8.516;2023-04-08T21:46:17;102964.69;;;8.32;100.00
37878;BME280;23715;53.652;8.516;2023-04-08T21:51:20;102961.77;;;8.38;100.00
37878;BME280;23715;53.652;8.516;2023-04-08T21:56:20;102968.17;;;8.34;100.00
37878;BME280;23715;53.652;8.516;2023-04-08T22:01:22;102970.86;;;8.34;100.00
37878;BME280;23715;53.652;8.516;2023-04-08T22:06:25;102968.23;;;8.23;100.00
37878;BME280;23715;53.652;8.516;2023-04-08T22:11:26;102969.42;;;8.15;100.00
37878;BME280;23715;53.652;8.516;2023-04-08T22:16:27;102975.59;;;8.17;100.00
37878;BME280;23715;53.652;8.516;2023-04-08T22:21:31;102972.70;;;8.12;100.00
37878;BME280;23715;53.652;8.516;2023-04-08T22:26:32;102972.63;;;8.03;100.00
37878;BME280;23715;53.652;8.516;2023-04-08T22:31:32;102963.30;;;7.79;100.00
37878;BME280;23715;53.652;8.516;2023-04-08T22:36:34;102961.38;;;7.49;100.00
37878;BME280;23715;53.652;8.516;2023-04-08T22:41:34;102966.27;;;7.38;100.00
37878;BME280;23715;53.652;8.516;2023-04-08T22:46:36;102959.06;;;7.16;100.00
37878;BME280;23715;53.652;8.516;2023-04-08T22:51:38;102966.14;;;6.82;100.00
37878;BME280;23715;53.652;8.516;2023-04-08T22:56:39;102959.44;;;6.70;100.00
37878;BME280;23715;53.652;8.516;2023-04-08T23:01:40;102970.77;;;7.02;100.00
37878;BME280;23715;53.652;8.516;2023-04-08T23:06:42;102971.77;;;6.86;100.00
37878;BME280;23715;53.652;8.516;2023-04-08T23:11:43;102973.78;;;7.16;100.00
37878;BME280;23715;53.652;8.516;2023-04-08T23:16:47;102982.05;;;7.34;100.00
37878;BME280;23715;53.652;8.516;2023-04-08T23:21:47;102979.83;;;7.45;100.00
37878;BME280;23715;53.652;8.516;2023-04-08T23:26:49;102973.52;;;7.70;100.00
37878;BME280;23715;53.652;8.516;2023-04-08T23:31:53;102975.37;;;7.68;100.00
37878;BME280;23715;53.652;8.516;2023-04-08T23:36:53;102977.95;;;7.71;100.00
37878;BME280;23715;53.652;8.516;2023-04-08T23:41:58;102975.58;;;7.85;100.00
37878;BME280;23715;53.652;8.516;2023-04-08T23:46:59;102971.25;;;7.71;100.00
37878;BME280;23715;53.652;8.516;2023-04-08T23:52:00;102971.19;;;7.94;100.00
37878;BME280;23715;53.652;8.516;2023-04-08T23:57:02;102966.41;;;8.13;100.00
